Time;durP1;ratioP1;P1;durP2;ratioP2;P2;SDS_P1;SDS_P2;PMS_P1;PMS_P2;Temp;Humidity;BMP_temperature;BMP_pressure;BME280_temperature;BME280_humidity;BME280_pressure;Samples;Min_cycle;Max_cycle;Signal;HPM_P1;HPM_P2
2022/06/16 00:01:35;;;;;;;0.10;0.10;;;11.70;99.90;;;;;;4858324;29;20081;-82
2022/06/16 00:04:01;;;;;;;0.28;0.28;;;11.70;99.90;;;;;;4856972;29;20037;-82
2022/06/16 00:06:27;;;;;;;0.00;0.00;;;11.60;99.90;;;;;;4869025;29;20105;-83
2022/06/16 00:08:52;;;;;;;0.63;0.63;;;11.70;99.90;;;;;;4869267;29;20045;-82
2022/06/16 00:11:21;;;;;;;0.10;0.10;;;11.70;99.90;;;;;;4855396;29;20042;-83
2022/06/16 00:13:49;;;;;;;0.10;0.10;;;11.70;99.90;;;;;;4851702;29;20053;-83
2022/06/16 00:16:15;;;;;;;0.10;0.10;;;11.70;99.90;;;;;;4884133;29;20045;-83
2022/06/16 00:18:41;;;;;;;1.30;0.15;;;12.10;99.90;;;;;;4884680;29;20430;-83
2022/06/16 00:21:08;;;;;;;0.10;0.10;;;11.80;99.90;;;;;;4868585;29;20048;-83
2022/06/16 00:23:34;;;;;;;0.20;0.20;;;11.80;99.90;;;;;;4868832;29;20055;-83
2022/06/16 00:26:00;;;;;;;0.00;0.00;;;11.80;99.90;;;;;;4867641;29;20049;-83
2022/06/16 00:28:26;;;;;;;0.00;0.00;;;11.90;99.90;;;;;;4851269;29;20502;-83
2022/06/16 00:30:59;;;;;;;0.25;0.25;;;11.80;99.90;;;;;;4865745;29;20049;-82
2022/06/16 00:33:25;;;;;;;0.00;0.00;;;11.70;99.90;;;;;;4865370;29;20049;-83
2022/06/16 00:35:50;;;;;;;0.40;0.40;;;11.70;99.90;;;;;;4880672;29;20396;-83
2022/06/16 00:38:16;;;;;;;0.00;0.00;;;11.60;99.90;;;;;;4865701;29;20052;-83
2022/06/16 00:40:42;;;;;;;0.20;0.10;;;11.60;99.90;;;;;;4850865;29;20472;-82
2022/06/16 00:43:09;;;;;;;0.70;0.70;;;11.60;99.90;;;;;;4863279;29;20057;-85
2022/06/16 00:46:06;;;;;;;0.00;0.00;;;11.60;99.90;;;;;;4864766;29;20144;-85
2022/06/16 00:48:38;;;;;;;0.10;0.10;;;11.60;99.90;;;;;;4873339;29;20084;-85
2022/06/16 00:51:06;;;;;;;0.10;0.10;;;11.60;99.90;;;;;;4880904;29;20045;-85
2022/06/16 00:53:33;;;;;;;0.35;0.35;;;11.80;99.90;;;;;;4880804;29;20048;-85
2022/06/16 00:55:59;;;;;;;0.20;0.20;;;11.60;99.90;;;;;;4863302;29;20120;-86
2022/06/16 00:58:27;;;;;;;0.10;0.10;;;11.50;99.90;;;;;;4863531;29;20037;-85
2022/06/16 01:00:53;;;;;;;0.00;0.00;;;11.60;99.90;;;;;;4865372;29;20045;-85
2022/06/16 01:06:20;;;;;;;0.75;0.47;;;11.70;99.90;;;;;;4877832;29;20404;-85
2022/06/16 01:08:48;;;;;;;0.00;0.00;;;11.70;99.90;;;;;;4878262;29;20057;-85
2022/06/16 01:14:40;;;;;;;0.10;0.10;;;11.90;99.90;;;;;;4880417;29;20088;-85
2022/06/16 01:17:20;;;;;;;0.00;0.00;;;12.00;99.90;;;;;;4880013;29;20487;-85
2022/06/16 01:20:12;;;;;;;0.00;0.00;;;12.10;99.90;;;;;;4870752;29;20045;-85
2022/06/16 01:23:12;;;;;;;0.00;0.00;;;12.10;99.90;;;;;;4868389;29;20077;-85
2022/06/16 01:26:10;;;;;;;0.00;0.00;;;12.10;99.90;;;;;;4871355;29;20130;-85
2022/06/16 01:28:48;;;;;;;0.20;0.20;;;12.20;99.90;;;;;;4873286;29;20065;-85
2022/06/16 01:31:23;;;;;;;0.10;0.10;;;12.20;99.90;;;;;;4876770;29;20045;-85
2022/06/16 01:33:54;;;;;;;0.20;0.20;;;12.20;99.90;;;;;;4880049;29;20049;-82
2022/06/16 01:36:24;;;;;;;0.00;0.00;;;12.30;99.90;;;;;;4877132;29;20389;-83
2022/06/16 01:39:06;;;;;;;0.00;0.00;;;12.10;99.90;;;;;;4865098;29;20037;-83
2022/06/16 01:41:56;;;;;;;0.00;0.00;;;12.10;99.90;;;;;;4879368;29;20045;-83
2022/06/16 01:44:31;;;;;;;0.08;0.08;;;12.10;99.90;;;;;;4880028;29;20068;-82
2022/06/16 01:47:02;;;;;;;0.00;0.00;;;12.10;99.90;;;;;;4863002;29;20112;-82
2022/06/16 01:49:36;;;;;;;0.00;0.00;;;12.10;99.90;;;;;;4864523;29;20049;-85
2022/06/16 01:52:12;;;;;;;0.10;0.10;;;12.00;99.90;;;;;;4880144;29;20382;-85
2022/06/16 01:54:46;;;;;;;0.35;0.35;;;12.10;99.90;;;;;;4879686;29;20045;-85
2022/06/16 01:57:33;;;;;;;0.10;0.10;;;12.00;99.90;;;;;;4868428;29;20088;-85
2022/06/16 02:00:19;;;;;;;0.10;0.10;;;12.00;99.90;;;;;;4879356;29;20481;-85
2022/06/16 02:02:51;;;;;;;0.08;0.08;;;12.00;99.90;;;;;;4863444;29;20056;-85
2022/06/16 02:05:26;;;;;;;0.08;0.08;;;12.00;99.90;;;;;;4878708;29;20503;-85
2022/06/16 02:08:22;;;;;;;0.40;0.40;;;11.90;99.90;;;;;;4879888;29;20049;-83
2022/06/16 02:10:59;;;;;;;0.00;0.00;;;11.90;99.90;;;;;;4875980;29;20071;-83
2022/06/16 02:13:32;;;;;;;0.52;0.52;;;11.80;99.90;;;;;;4864097;29;20045;-82
2022/06/16 02:16:10;;;;;;;0.00;0.00;;;11.80;99.90;;;;;;4874367;29;20132;-83
2022/06/16 02:18:39;;;;;;;0.22;0.22;;;11.70;99.90;;;;;;4879674;29;20397;-82
2022/06/16 02:21:32;;;;;;;0.40;0.40;;;11.70;99.90;;;;;;4879448;29;20396;-82
2022/06/16 02:23:58;;;;;;;0.00;0.00;;;11.60;99.90;;;;;;4871015;29;20048;-85
2022/06/16 02:26:25;;;;;;;0.00;0.00;;;11.60;99.90;;;;;;4862140;29;20044;-85
2022/06/16 02:28:54;;;;;;;0.00;0.00;;;11.60;99.90;;;;;;4879014;29;20051;-85
2022/06/16 02:31:38;;;;;;;0.10;0.10;;;11.50;99.90;;;;;;4879305;29;20064;-84
2022/06/16 02:34:20;;;;;;;0.20;0.20;;;11.40;99.90;;;;;;4879286;29;20084;-85
2022/06/16 02:36:46;;;;;;;0.00;0.00;;;;;;;;;;4861429;29;20496;-85
2022/06/16 02:39:30;;;;;;;0.10;0.10;;;11.40;99.90;;;;;;4863530;29;20037;-85
2022/06/16 02:42:13;;;;;;;0.00;0.00;;;11.40;99.90;;;;;;4879046;29;20126;-85
2022/06/16 02:44:46;;;;;;;0.20;0.20;;;11.30;99.90;;;;;;4878861;29;20488;-85
2022/06/16 02:47:47;;;;;;;0.17;0.17;;;11.30;99.90;;;;;;4877892;29;20100;-85
2022/06/16 02:50:25;;;;;;;0.10;0.10;;;11.30;99.90;;;;;;4879066;29;20106;-84
2022/06/16 02:56:22;;;;;;;0.00;0.00;;;11.20;99.90;;;;;;4876036;29;20610;-85
2022/06/16 02:58:53;;;;;;;0.35;0.30;;;11.10;99.90;;;;;;4853912;29;20489;-85
2022/06/16 03:01:19;;;;;;;0.10;0.10;;;11.10;99.90;;;;;;4869975;29;20045;-85
2022/06/16 03:04:06;;;;;;;0.08;0.08;;;10.90;99.90;;;;;;4844950;29;20049;-85
2022/06/16 03:06:34;;;;;;;0.00;0.00;;;10.90;99.90;;;;;;4860579;29;20079;-85
2022/06/16 03:09:01;;;;;;;0.00;0.00;;;10.80;99.90;;;;;;4858539;29;20068;-85
2022/06/16 03:11:28;;;;;;;0.08;0.08;;;10.70;99.90;;;;;;4878562;29;20127;-85
2022/06/16 03:13:54;;;;;;;0.00;0.00;;;10.70;99.90;;;;;;4862106;29;20104;-85
2022/06/16 03:16:20;;;;;;;0.03;0.03;;;10.50;99.90;;;;;;4863131;29;20044;-85
2022/06/16 03:18:46;;;;;;;0.20;0.20;;;11.00;99.90;;;;;;4862169;29;20041;-85
2022/06/16 03:21:12;;;;;;;1.65;0.55;;;10.40;99.90;;;;;;4863233;29;20188;-85
2022/06/16 03:23:40;;;;;;;0.15;0.15;;;10.30;99.90;;;;;;4848670;29;20055;-85
2022/06/16 03:26:09;;;;;;;0.08;0.08;;;10.40;99.90;;;;;;4863215;29;20045;-85
2022/06/16 03:28:35;;;;;;;0.30;0.30;;;10.50;99.90;;;;;;4852893;29;20044;-85
2022/06/16 03:31:01;;;;;;;0.22;0.22;;;10.60;99.90;;;;;;4859704;29;20037;-85
2022/06/16 03:33:27;;;;;;;0.10;0.10;;;10.60;99.90;;;;;;4844506;29;20038;-85
2022/06/16 03:35:53;;;;;;;0.30;0.30;;;10.70;99.90;;;;;;4859776;29;20463;-85
2022/06/16 03:41:17;;;;;;;0.00;0.00;;;10.90;99.90;;;;;;4856749;29;20045;-85
2022/06/16 03:43:43;;;;;;;0.20;0.20;;;11.00;99.90;;;;;;4862729;29;20148;-85
2022/06/16 03:46:11;;;;;;;0.10;0.10;;;11.10;99.90;;;;;;4874802;29;20060;-82
2022/06/16 03:48:38;;;;;;;0.57;0.57;;;11.10;99.90;;;;;;4844708;29;20560;-82
2022/06/16 03:51:05;;;;;;;0.10;0.10;;;11.20;99.90;;;;;;4845886;29;20443;-82
2022/06/16 03:53:32;;;;;;;0.00;0.00;;;11.30;99.90;;;;;;4847922;29;20093;-82
2022/06/16 03:55:58;;;;;;;0.10;0.10;;;11.30;99.90;;;;;;4878375;29;20045;-82
2022/06/16 03:58:24;;;;;;;0.30;0.30;;;11.40;99.90;;;;;;4873512;29;20045;-82
2022/06/16 04:00:50;;;;;;;0.00;0.00;;;11.50;99.90;;;;;;4869539;29;20076;-83
2022/06/16 04:06:04;;;;;;;0.00;0.00;;;11.60;99.90;;;;;;4882179;29;20088;-84
2022/06/16 04:08:37;;;;;;;0.10;0.10;;;11.70;99.90;;;;;;4881523;29;20440;-85
2022/06/16 04:11:26;;;;;;;0.03;0.03;;;11.80;99.90;;;;;;4844612;29;20045;-84
2022/06/16 04:13:49;;;;;;;0.20;0.20;;;11.90;99.90;;;;;;4878689;29;20108;-85
2022/06/16 04:16:15;;;;;;;0.00;0.00;;;12.20;99.90;;;;;;4866095;29;20128;-85
2022/06/16 04:18:41;;;;;;;0.05;0.05;;;12.10;99.90;;;;;;4878210;29;20120;-85
2022/06/16 04:21:07;;;;;;;0.05;0.05;;;12.30;99.90;;;;;;4851200;29;20441;-83
2022/06/16 04:23:33;;;;;;;0.00;0.00;;;12.40;99.90;;;;;;4875827;29;20042;-82
2022/06/16 04:25:59;;;;;;;0.00;0.00;;;12.70;99.90;;;;;;4879814;29;20399;-83
2022/06/16 04:28:25;;;;;;;0.00;0.00;;;12.60;99.90;;;;;;4880518;29;20128;-83
2022/06/16 04:30:50;;;;;;;0.05;0.05;;;12.70;99.90;;;;;;4877432;29;20072;-83
2022/06/16 04:33:18;;;;;;;0.17;0.17;;;12.80;99.90;;;;;;4878015;29;20136;-83
2022/06/16 04:35:44;;;;;;;0.43;0.25;;;12.90;99.90;;;;;;4862605;29;20132;-83
2022/06/16 04:38:09;;;;;;;0.47;0.47;;;13.10;99.90;;;;;;4864603;29;20124;-85
2022/06/16 04:40:35;;;;;;;0.03;0.03;;;13.10;99.90;;;;;;4865571;29;20055;-85
2022/06/16 04:43:01;;;;;;;0.00;0.00;;;13.20;99.90;;;;;;4880027;29;20097;-85
2022/06/16 04:45:27;;;;;;;0.10;0.10;;;13.30;99.90;;;;;;4863732;29;20072;-85
2022/06/16 04:47:53;;;;;;;0.00;0.00;;;13.50;99.90;;;;;;4877648;29;20080;-85
2022/06/16 04:50:18;;;;;;;0.00;0.00;;;13.60;99.90;;;;;;4863922;29;20041;-85
2022/06/16 04:52:46;;;;;;;0.05;0.05;;;13.60;99.90;;;;;;4866505;29;20045;-83
2022/06/16 04:55:12;;;;;;;0.45;0.20;;;13.70;99.90;;;;;;4864558;29;20049;-83
2022/06/16 04:57:38;;;;;;;0.20;0.20;;;13.80;99.90;;;;;;4878469;29;20044;-83
2022/06/16 05:00:06;;;;;;;0.30;0.20;;;13.80;99.90;;;;;;4880461;29;20037;-83
2022/06/16 05:02:32;;;;;;;0.08;0.08;;;14.00;99.90;;;;;;4824317;29;20208;-83
2022/06/16 05:04:57;;;;;;;2.58;0.25;;;14.00;99.90;;;;;;4880499;29;20128;-83
2022/06/16 05:07:23;;;;;;;0.10;0.10;;;14.10;99.90;;;;;;4866775;29;20049;-83
2022/06/16 05:09:49;;;;;;;0.10;0.10;;;14.30;99.90;;;;;;4864978;29;20052;-85
2022/06/16 05:12:15;;;;;;;0.00;0.00;;;14.40;99.90;;;;;;4865056;29;20128;-85
2022/06/16 05:14:41;;;;;;;0.00;0.00;;;14.40;99.90;;;;;;4879877;29;20051;-85
2022/06/16 05:17:07;;;;;;;0.10;0.10;;;14.40;99.90;;;;;;4880698;29;20388;-85
2022/06/16 05:19:34;;;;;;;0.30;0.30;;;14.40;99.90;;;;;;4863863;29;20032;-85
2022/06/16 05:22:01;;;;;;;0.20;0.20;;;14.40;99.90;;;;;;4864885;29;20045;-85
2022/06/16 05:24:27;;;;;;;0.00;0.00;;;14.60;99.90;;;;;;4865155;29;20437;-85
2022/06/16 05:26:54;;;;;;;0.60;0.50;;;14.70;99.90;;;;;;4880635;29;20080;-83
2022/06/16 05:29:20;;;;;;;0.20;0.20;;;16.70;99.90;;;;;;4847919;29;20047;-82
2022/06/16 05:31:46;;;;;;;0.20;0.20;;;17.80;99.90;;;;;;4864722;29;20044;-82
2022/06/16 05:34:15;;;;;;;0.00;0.00;;;18.50;99.90;;;;;;4880593;29;20555;-83
2022/06/16 05:36:44;;;;;;;0.43;0.43;;;19.30;99.90;;;;;;4864959;29;20041;-82
2022/06/16 05:39:09;;;;;;;0.10;0.10;;;19.90;99.90;;;;;;4879577;29;20045;-83
2022/06/16 05:41:35;;;;;;;0.10;0.10;;;21.00;99.90;;;;;;4879743;29;20185;-83
2022/06/16 05:44:02;;;;;;;0.05;0.05;;;21.80;99.90;;;;;;4848376;29;20097;-83
2022/06/16 05:46:27;;;;;;;0.15;0.15;;;22.40;99.90;;;;;;4869688;29;20054;-83
2022/06/16 05:48:53;;;;;;;0.20;0.20;;;22.50;99.90;;;;;;4847427;29;20205;-83
2022/06/16 05:51:19;;;;;;;0.10;0.10;;;23.00;99.90;;;;;;4863912;29;20037;-83
2022/06/16 05:53:45;;;;;;;0.10;0.10;;;23.50;98.90;;;;;;4857266;29;20046;-83
2022/06/16 05:56:12;;;;;;;0.35;0.35;;;23.80;96.40;;;;;;4860403;29;20045;-82
2022/06/16 05:58:38;;;;;;;0.22;0.22;;;23.90;95.60;;;;;;4859010;29;20040;-83
2022/06/16 06:01:05;;;;;;;1.33;0.38;;;24.50;95.20;;;;;;4873536;29;20037;-83
2022/06/16 06:03:31;;;;;;;0.00;0.00;;;24.70;93.90;;;;;;4851777;29;20123;-83
2022/06/16 06:06:00;;;;;;;0.00;0.00;;;25.20;93.30;;;;;;4879626;29;20128;-83
2022/06/16 06:17:03;;;;;;;0.10;0.10;;;26.30;88.40;;;;;;4862647;29;20053;-86
2022/06/16 06:19:31;;;;;;;0.10;0.10;;;26.30;89.90;;;;;;4848738;29;20041;-87
2022/06/16 06:22:05;;;;;;;0.20;0.20;;;26.40;84.30;;;;;;4863731;29;20044;-85
2022/06/16 06:24:38;;;;;;;0.00;0.00;;;26.40;84.40;;;;;;4863355;29;20041;-85
2022/06/16 06:27:09;;;;;;;0.22;0.22;;;26.30;84.80;;;;;;4876313;29;20056;-86
2022/06/16 06:29:35;;;;;;;0.05;0.05;;;26.30;81.80;;;;;;4852682;29;20089;-85
2022/06/16 06:32:01;;;;;;;0.20;0.20;;;26.80;81.40;;;;;;4861154;29;20128;-86
2022/06/16 06:34:28;;;;;;;0.20;0.20;;;27.00;79.20;;;;;;4877995;29;20056;-83
2022/06/16 06:36:55;;;;;;;0.10;0.10;;;27.10;79.00;;;;;;4860572;29;20516;-84
2022/06/16 06:39:21;;;;;;;0.20;0.20;;;27.10;78.40;;;;;;4864338;29;20384;-83
2022/06/16 06:41:47;;;;;;;0.10;0.10;;;27.20;82.00;;;;;;4853845;29;20436;-83
2022/06/16 06:44:13;;;;;;;0.32;0.32;;;27.70;79.00;;;;;;4875506;29;20136;-83
2022/06/16 06:46:39;;;;;;;0.10;0.10;;;27.90;78.00;;;;;;4878136;29;20088;-83
2022/06/16 06:49:07;;;;;;;0.30;0.25;;;28.20;77.50;;;;;;4859281;29;20056;-83
2022/06/16 06:51:34;;;;;;;0.15;0.15;;;28.50;74.70;;;;;;4876970;29;20041;-83
2022/06/16 06:54:00;;;;;;;0.13;0.13;;;28.80;73.30;;;;;;4875252;29;20067;-83
2022/06/16 06:56:30;;;;;;;0.10;0.10;;;28.80;72.70;;;;;;4863059;29;20044;-83
2022/06/16 06:58:58;;;;;;;0.45;0.45;;;29.00;72.00;;;;;;4876275;29;20041;-84
2022/06/16 07:01:24;;;;;;;0.25;0.25;;;29.10;72.90;;;;;;4862682;29;20052;-83
2022/06/16 07:03:50;;;;;;;0.13;0.13;;;29.40;71.60;;;;;;4858952;29;20041;-83
2022/06/16 07:06:17;;;;;;;0.30;0.30;;;29.60;71.40;;;;;;4847805;29;20052;-83
2022/06/16 07:08:44;;;;;;;0.15;0.15;;;29.80;68.80;;;;;;4877511;29;20182;-83
2022/06/16 07:11:10;;;;;;;0.10;0.10;;;30.10;68.60;;;;;;4878452;29;20140;-83
2022/06/16 07:13:36;;;;;;;0.20;0.20;;;30.00;67.40;;;;;;4877387;29;20048;-83
2022/06/16 07:16:02;;;;;;;0.10;0.10;;;30.10;66.40;;;;;;4871824;29;20045;-84
2022/06/16 07:18:28;;;;;;;0.10;0.10;;;30.60;65.60;;;;;;4874336;29;20396;-83
2022/06/16 07:20:54;;;;;;;0.22;0.22;;;30.80;65.40;;;;;;4875199;29;20049;-83
2022/06/16 07:23:20;;;;;;;1.20;1.10;;;31.10;66.40;;;;;;4862539;29;20063;-83
2022/06/16 07:25:50;;;;;;;0.20;0.20;;;31.50;66.60;;;;;;4878137;29;20059;-83
2022/06/16 07:28:17;;;;;;;1.20;1.10;;;31.80;65.50;;;;;;4878938;29;20575;-83
2022/06/16 07:30:46;;;;;;;0.17;0.17;;;31.80;64.30;;;;;;4862344;29;20074;-83
2022/06/16 07:33:12;;;;;;;0.05;0.05;;;31.90;63.50;;;;;;4847771;29;20437;-83
2022/06/16 07:35:44;;;;;;;0.17;0.17;;;31.70;64.80;;;;;;4878143;29;20077;-83
2022/06/16 07:38:12;;;;;;;0.45;0.45;;;31.40;64.00;;;;;;4849808;29;20492;-83
2022/06/16 07:40:39;;;;;;;0.10;0.10;;;32.20;60.00;;;;;;4880220;29;20472;-83
2022/06/16 07:43:06;;;;;;;0.10;0.10;;;32.20;58.80;;;;;;4881226;29;20088;-84
2022/06/16 07:45:34;;;;;;;0.20;0.20;;;32.60;57.70;;;;;;4877620;29;20056;-83
2022/06/16 07:48:02;;;;;;;0.10;0.10;;;32.60;56.80;;;;;;4880990;29;20041;-83
2022/06/16 07:50:29;;;;;;;0.10;0.10;;;32.60;58.50;;;;;;4864805;29;20111;-83
2022/06/16 07:52:55;;;;;;;0.20;0.20;;;33.00;57.70;;;;;;4865541;29;20053;-83
2022/06/16 07:55:21;;;;;;;0.40;0.28;;;33.00;56.90;;;;;;4865796;29;20037;-83
2022/06/16 07:57:49;;;;;;;0.35;0.35;;;33.40;58.30;;;;;;4882080;29;20041;-85
2022/06/16 08:00:22;;;;;;;0.10;0.10;;;33.20;56.40;;;;;;4866200;29;20096;-86
2022/06/16 08:02:47;;;;;;;0.20;0.20;;;32.90;57.30;;;;;;4881152;29;20048;-85
2022/06/16 08:05:13;;;;;;;0.25;0.25;;;33.30;58.10;;;;;;4881907;29;20045;-86
2022/06/16 08:07:41;;;;;;;0.30;0.30;;;33.40;57.40;;;;;;4881449;29;20186;-86
2022/06/16 08:10:09;;;;;;;2.20;0.28;;;33.50;57.40;;;;;;4881530;29;20492;-86
2022/06/16 08:12:37;;;;;;;0.20;0.20;;;33.20;58.30;;;;;;4881604;29;20095;-86
2022/06/16 08:15:03;;;;;;;0.30;0.30;;;33.00;56.00;;;;;;4880712;29;20045;-86
2022/06/16 08:17:32;;;;;;;0.20;0.20;;;32.90;57.40;;;;;;4881000;29;20045;-85
2022/06/16 08:19:59;;;;;;;0.20;0.20;;;33.30;56.80;;;;;;4881019;29;20047;-86
2022/06/16 08:22:26;;;;;;;0.10;0.10;;;33.50;57.10;;;;;;4877048;29;20042;-86
2022/06/16 08:24:52;;;;;;;0.25;0.25;;;33.90;56.90;;;;;;4878329;29;20399;-86
2022/06/16 08:27:28;;;;;;;1.85;0.90;;;34.20;58.30;;;;;;4869722;29;20045;-86
2022/06/16 08:29:54;;;;;;;0.10;0.10;;;34.00;57.40;;;;;;4877933;29;20085;-85
2022/06/16 08:32:21;;;;;;;0.35;0.35;;;33.70;57.20;;;;;;4850003;29;20053;-84
2022/06/16 08:34:51;;;;;;;0.30;0.30;;;32.50;57.70;;;;;;4895768;29;20041;-84
2022/06/16 08:37:17;;;;;;;0.10;0.10;;;31.50;57.30;;;;;;4848052;29;20084;-83
2022/06/16 08:39:43;;;;;;;0.10;0.10;;;30.10;59.90;;;;;;4874433;29;20102;-84
2022/06/16 08:42:35;;;;;;;0.10;0.10;;;28.80;61.50;;;;;;4881128;29;20045;-83
2022/06/16 08:45:28;;;;;;;0.90;0.60;;;27.80;63.40;;;;;;4865201;29;20109;-83
2022/06/16 08:48:20;;;;;;;0.20;0.20;;;27.40;64.50;;;;;;4881580;29;20408;-83
2022/06/16 08:50:49;;;;;;;0.00;0.00;;;27.20;64.90;;;;;;4878977;29;20084;-83
2022/06/16 08:53:15;;;;;;;0.10;0.10;;;28.10;65.40;;;;;;4881052;29;20045;-83
2022/06/16 08:55:40;;;;;;;0.10;0.10;;;30.80;62.90;;;;;;4880824;29;20105;-83
2022/06/16 08:58:24;;;;;;;0.20;0.20;;;31.00;63.80;;;;;;4898798;23;20052;-84
2022/06/16 09:00:55;;;;;;;0.30;0.30;;;32.00;59.60;;;;;;4882465;29;20048;-84
2022/06/16 09:03:53;;;;;;;0.10;0.10;;;32.20;60.10;;;;;;4897800;29;20108;-87
2022/06/16 09:06:49;;;;;;;0.10;0.10;;;32.70;59.30;;;;;;4883546;29;20188;-86
2022/06/16 09:09:15;;;;;;;0.10;0.10;;;32.90;60.10;;;;;;4882713;29;20456;-87
2022/06/16 09:11:58;;;;;;;0.22;0.22;;;33.60;61.00;;;;;;4892538;29;20052;-87
2022/06/16 09:15:10;;;;;;;0.10;0.10;;;34.00;58.40;;;;;;4884429;29;20188;-87
2022/06/16 09:17:16;;;;;;;;;;;34.60;57.70;;;;;;4881087;29;20049;-87
2022/06/16 09:19:53;;;;;;;0.15;0.15;;;34.60;56.10;;;;;;4880794;29;20350;-86
2022/06/16 09:22:56;;;;;;;0.20;0.20;;;34.70;57.60;;;;;;4897008;29;20056;-86
2022/06/16 09:25:51;;;;;;;0.20;0.20;;;35.00;57.40;;;;;;4889593;29;20086;-86
2022/06/16 09:28:31;;;;;;;0.25;0.25;;;35.30;55.30;;;;;;4898650;29;20044;-86
2022/06/16 09:31:01;;;;;;;0.10;0.10;;;35.30;56.30;;;;;;4895671;29;20100;-86
2022/06/16 09:33:35;;;;;;;0.20;0.20;;;35.50;56.30;;;;;;4885440;29;20041;-86
2022/06/16 09:36:33;;;;;;;0.10;0.10;;;35.90;55.50;;;;;;4898702;29;20049;-85
2022/06/16 09:39:17;;;;;;;0.10;0.10;;;35.90;55.90;;;;;;4883627;29;20041;-85
2022/06/16 09:45:01;;;;;;;0.10;0.10;;;36.70;56.70;;;;;;4881808;29;20053;-84
2022/06/16 09:47:32;;;;;;;0.30;0.30;;;36.80;56.70;;;;;;4912037;29;20076;-85
2022/06/16 09:50:06;;;;;;;0.28;0.28;;;36.70;54.90;;;;;;4896626;29;20395;-85
2022/06/16 09:52:42;;;;;;;0.00;0.00;;;36.50;55.80;;;;;;4898448;29;20384;-84
2022/06/16 09:55:21;;;;;;;0.22;0.22;;;36.20;55.80;;;;;;4894822;29;20079;-85
2022/06/16 09:57:52;;;;;;;0.10;0.10;;;36.60;56.10;;;;;;4894032;29;20479;-85
2022/06/16 10:00:22;;;;;;;0.20;0.20;;;36.70;54.00;;;;;;4872494;29;20076;-85
2022/06/16 10:03:02;;;;;;;0.20;0.20;;;36.70;54.10;;;;;;4887100;29;20477;-85
2022/06/16 10:05:35;;;;;;;0.20;0.20;;;37.00;54.30;;;;;;4879070;29;20033;-85
2022/06/16 10:08:10;;;;;;;0.10;0.10;;;37.00;55.10;;;;;;4880123;29;20045;-85
2022/06/16 10:10:54;;;;;;;0.10;0.10;;;37.00;52.80;;;;;;4897666;29;20559;-86
2022/06/16 10:13:46;;;;;;;0.20;0.20;;;36.00;52.40;;;;;;4895235;29;20100;-86
2022/06/16 10:16:19;;;;;;;0.05;0.05;;;36.00;53.10;;;;;;4896579;29;20085;-86
2022/06/16 10:18:46;;;;;;;0.10;0.10;;;35.90;53.90;;;;;;4881814;29;20247;-86
2022/06/16 10:21:13;;;;;;;0.35;0.30;;;36.10;53.30;;;;;;4883580;29;20063;-86
2022/06/16 10:23:50;;;;;;;0.10;0.10;;;36.00;52.90;;;;;;4894592;29;20041;-86
2022/06/16 10:26:17;;;;;;;0.10;0.10;;;36.20;52.90;;;;;;4882354;29;20051;-87
2022/06/16 10:28:48;;;;;;;0.10;0.10;;;36.50;52.80;;;;;;4881165;29;20040;-87
2022/06/16 10:31:40;;;;;;;0.13;0.13;;;36.70;54.00;;;;;;4898229;29;20045;-87
2022/06/16 10:34:16;;;;;;;0.40;0.40;;;36.80;51.40;;;;;;4896971;29;20036;-87
2022/06/16 10:36:49;;;;;;;0.93;0.57;;;36.60;51.90;;;;;;4894060;29;20391;-87
2022/06/16 10:39:19;;;;;;;0.20;0.20;;;36.50;51.00;;;;;;4878980;29;20495;-87
2022/06/16 10:42:01;;;;;;;0.10;0.10;;;36.40;53.40;;;;;;4864641;29;20041;-87
2022/06/16 10:44:29;;;;;;;0.03;0.03;;;36.40;52.50;;;;;;4889901;29;20510;-87
2022/06/16 10:47:00;;;;;;;0.35;0.35;;;36.40;51.70;;;;;;4897608;29;20059;-87
2022/06/16 10:49:30;;;;;;;0.28;0.28;;;36.60;52.10;;;;;;4879912;29;20176;-86
2022/06/16 10:52:02;;;;;;;0.88;0.45;;;36.70;52.50;;;;;;4895668;29;20059;-86
2022/06/16 10:54:42;;;;;;;0.17;0.17;;;36.70;52.40;;;;;;4897816;29;20484;-87
2022/06/16 10:57:13;;;;;;;0.10;0.10;;;36.80;53.00;;;;;;4897706;29;20055;-86
2022/06/16 10:59:46;;;;;;;0.15;0.15;;;36.90;54.20;;;;;;4897161;29;20511;-84
2022/06/16 11:02:28;;;;;;;0.15;0.15;;;37.00;52.30;;;;;;4890680;29;20056;-84
2022/06/16 11:04:57;;;;;;;0.20;0.20;;;37.10;52.60;;;;;;4888323;29;20127;-84
2022/06/16 11:07:23;;;;;;;0.47;0.35;;;37.20;52.60;;;;;;4897553;29;20096;-85
2022/06/16 11:09:50;;;;;;;0.38;0.20;;;37.30;52.30;;;;;;4897146;29;20049;-84
2022/06/16 11:12:23;;;;;;;0.10;0.10;;;37.20;52.50;;;;;;4897280;29;20463;-85
2022/06/16 11:14:55;;;;;;;0.22;0.22;;;37.20;50.10;;;;;;4893429;29;20063;-85
2022/06/16 11:17:30;;;;;;;0.13;0.13;;;36.80;52.60;;;;;;4891162;29;20115;-88
2022/06/16 11:20:14;;;;;;;;;;;36.70;51.20;;;;;;4897552;29;20049;-87
2022/06/16 11:22:44;;;;;;;0.10;0.10;;;36.60;51.80;;;;;;4881983;29;19919;-87
2022/06/16 11:25:17;;;;;;;0.28;0.28;;;36.40;51.60;;;;;;4896964;29;20119;-87
2022/06/16 11:27:50;;;;;;;0.17;0.17;;;36.20;51.00;;;;;;4888573;29;20048;-87
2022/06/16 11:30:43;;;;;;;0.03;0.03;;;36.20;52.30;;;;;;4869365;29;20040;-87
2022/06/16 11:36:49;;;;;;;0.10;0.10;;;36.00;50.80;;;;;;4894830;29;20068;-87
2022/06/16 11:39:52;;;;;;;0.30;0.28;;;36.20;51.10;;;;;;4894141;29;20105;-87
2022/06/16 11:42:27;;;;;;;0.10;0.10;;;36.40;51.60;;;;;;4913055;29;20388;-87
2022/06/16 11:45:28;;;;;;;0.25;0.25;;;36.60;51.60;;;;;;4880138;29;20396;-86
2022/06/16 11:48:01;;;;;;;0.10;0.10;;;36.30;50.40;;;;;;4894254;29;20131;-86
2022/06/16 11:50:36;;;;;;;0.25;0.25;;;35.70;49.60;;;;;;4895493;29;20104;-86
2022/06/16 11:53:27;;;;;;;0.13;0.13;;;35.70;51.50;;;;;;4878872;29;20044;-85
2022/06/16 11:56:32;;;;;;;0.10;0.10;;;35.30;50.70;;;;;;4867567;29;20045;-86
2022/06/16 11:59:16;;;;;;;0.77;0.52;;;35.40;51.70;;;;;;4865875;29;20108;-85
2022/06/16 12:01:44;;;;;;;0.13;0.10;;;35.90;52.30;;;;;;4895373;29;20044;-85
2022/06/16 12:04:13;;;;;;;0.10;0.10;;;36.30;51.50;;;;;;4872694;29;20075;-85
2022/06/16 12:07:05;;;;;;;0.10;0.10;;;36.50;50.30;;;;;;4897505;29;20446;-86
2022/06/16 12:10:05;;;;;;;0.10;0.10;;;36.10;50.10;;;;;;4891780;29;20056;-86
2022/06/16 12:12:44;;;;;;;0.10;0.10;;;36.30;50.30;;;;;;4879871;29;20412;-87
2022/06/16 12:15:35;;;;;;;0.28;0.28;;;36.10;50.80;;;;;;4879108;29;20092;-87
2022/06/16 12:18:10;;;;;;;0.10;0.10;;;35.40;50.20;;;;;;4909301;29;20056;-87
2022/06/16 12:20:54;;;;;;;0.15;0.13;;;34.90;50.90;;;;;;4899832;29;20124;-87
2022/06/16 12:23:33;;;;;;;0.30;0.30;;;34.50;51.20;;;;;;4894644;29;20045;-88
2022/06/16 12:26:26;;;;;;;0.57;0.20;;;34.30;52.10;;;;;;4880823;29;20096;-88
2022/06/16 12:29:26;;;;;;;0.13;0.13;;;34.50;52.20;;;;;;4886350;29;20104;-88
2022/06/16 12:32:00;;;;;;;0.03;0.03;;;34.50;50.30;;;;;;4897015;29;20083;-88
2022/06/16 12:34:33;;;;;;;0.10;0.10;;;34.60;52.00;;;;;;4900207;29;20048;-87
2022/06/16 12:37:06;;;;;;;0.10;0.10;;;34.60;50.90;;;;;;4884392;29;20395;-88
2022/06/16 12:39:39;;;;;;;0.03;0.03;;;34.40;52.50;;;;;;4890672;29;20128;-86
2022/06/16 12:42:09;;;;;;;0.10;0.10;;;34.70;51.20;;;;;;4891443;29;20045;-86
2022/06/16 12:44:43;;;;;;;0.00;0.00;;;34.30;50.00;;;;;;4900692;29;20048;-86
2022/06/16 12:47:26;;;;;;;0.17;0.17;;;33.50;52.10;;;;;;4915471;29;20048;-86
2022/06/16 12:50:05;;;;;;;0.10;0.10;;;33.40;53.40;;;;;;4900225;29;20048;-86
2022/06/16 12:52:36;;;;;;;0.00;0.00;;;33.60;53.00;;;;;;4895332;29;20437;-86
2022/06/16 12:55:06;;;;;;;0.13;0.13;;;34.00;50.90;;;;;;4890222;29;20051;-86
2022/06/16 12:57:39;;;;;;;3.10;0.30;;;34.10;50.90;;;;;;4891659;29;20041;-85
2022/06/16 13:00:10;;;;;;;0.10;0.10;;;34.20;50.40;;;;;;4880881;29;20180;-85
2022/06/16 13:02:46;;;;;;;0.47;0.43;;;34.30;50.50;;;;;;4884732;29;20076;-85
2022/06/16 13:05:13;;;;;;;0.08;0.08;;;34.40;51.40;;;;;;4889124;29;20044;-84
2022/06/16 13:07:43;;;;;;;0.00;0.00;;;34.20;50.50;;;;;;4896258;29;20044;-85
2022/06/16 13:10:12;;;;;;;0.10;0.10;;;34.20;51.40;;;;;;4883374;29;20055;-84
2022/06/16 13:12:43;;;;;;;0.00;0.00;;;34.10;51.50;;;;;;4884198;29;20052;-87
2022/06/16 13:15:31;;;;;;;0.10;0.10;;;34.20;50.70;;;;;;4896172;29;20044;-88
2022/06/16 13:18:20;;;;;;;0.30;0.20;;;34.10;50.70;;;;;;4899183;29;20041;-88
2022/06/16 13:20:52;;;;;;;0.00;0.00;;;34.10;51.30;;;;;;4897205;29;20044;-87
2022/06/16 13:23:36;;;;;;;0.50;0.50;;;34.00;50.50;;;;;;4898394;29;20059;-88
2022/06/16 13:26:26;;;;;;;0.20;0.20;;;33.60;50.80;;;;;;4879286;29;20076;-87
2022/06/16 13:29:09;;;;;;;0.38;0.38;;;33.60;51.30;;;;;;4864731;29;20108;-88
2022/06/16 13:31:43;;;;;;;0.20;0.20;;;33.60;51.30;;;;;;4864948;29;20045;-85
2022/06/16 13:34:20;;;;;;;0.10;0.10;;;33.80;51.30;;;;;;4883390;29;20083;-85
2022/06/16 13:36:54;;;;;;;0.20;0.20;;;33.80;52.00;;;;;;4887999;29;20511;-85
2022/06/16 13:39:55;;;;;;;0.03;0.03;;;33.70;51.10;;;;;;4882876;29;20395;-84
2022/06/16 13:42:43;;;;;;;0.10;0.10;;;33.40;50.60;;;;;;4857716;29;20053;-84
2022/06/16 13:45:12;;;;;;;0.13;0.13;;;33.30;52.20;;;;;;4865702;29;20051;-85
2022/06/16 13:47:44;;;;;;;1.13;1.02;;;33.00;51.80;;;;;;4879855;29;20048;-85